createdAt,value
2023-10-07T00:01:18.395Z,90.15
2023-10-07T00:03:45.422Z,90.19
2023-10-07T00:06:12.793Z,90.65
2023-10-07T00:08:40.398Z,91.76
2023-10-07T00:11:13.252Z,91.55
2023-10-07T00:13:43.187Z,92.13
2023-10-07T00:16:19.450Z,91.50
2023-10-07T00:18:47.000Z,90.89
2023-10-07T00:21:25.407Z,90.70
2023-10-07T00:23:54.416Z,91.02
2023-10-07T00:26:21.433Z,90.75
2023-10-07T00:29:03.225Z,90.85
2023-10-07T00:31:35.003Z,90.99
2023-10-07T00:34:20.536Z,91.51
2023-10-07T00:36:49.445Z,91.81
2023-10-07T00:39:22.746Z,91.75
2023-10-07T00:41:52.115Z,91.60
2023-10-07T00:44:19.417Z,92.37
2023-10-07T00:47:07.101Z,92.94
2023-10-07T00:50:03.315Z,92.76
2023-10-07T00:52:30.960Z,93.06
2023-10-07T00:55:05.206Z,93.53
2023-10-07T00:57:35.687Z,93.07
2023-10-07T01:00:24.543Z,92.73
2023-10-07T01:02:52.986Z,93.04
2023-10-07T01:05:28.956Z,92.17
2023-10-07T01:07:57.011Z,92.09
2023-10-07T01:10:29.442Z,91.84
2023-10-07T01:13:00.497Z,92.35
2023-10-07T01:15:30.508Z,92.47
2023-10-07T01:17:58.969Z,92.30
2023-10-07T01:20:35.315Z,91.44
2023-10-07T01:23:06.144Z,92.07
2023-10-07T01:25:36.595Z,92.37
2023-10-07T01:28:06.091Z,93.44
2023-10-07T01:30:36.094Z,94.50
2023-10-07T01:33:10.382Z,95.90
2023-10-07T01:35:41.312Z,97.36
2023-10-07T01:38:09.262Z,97.09
2023-10-07T01:40:45.718Z,97.16
2023-10-07T01:43:12.775Z,96.02
2023-10-07T01:45:42.601Z,95.46
2023-10-07T01:48:09.723Z,94.71
2023-10-07T01:50:41.822Z,94.26
2023-10-07T01:53:09.952Z,94.38
2023-10-07T01:55:49.915Z,94.72
2023-10-07T01:58:20.250Z,94.47
2023-10-07T02:00:53.354Z,94.03
2023-10-07T02:03:25.328Z,93.81
2023-10-07T02:05:53.661Z,93.56
2023-10-07T02:08:24.508Z,93.44
2023-10-07T02:10:58.118Z,93.39
2023-10-07T02:13:29.433Z,93.32
2023-10-07T02:15:56.874Z,93.18
2023-10-07T02:18:28.770Z,93.52
2023-10-07T02:21:09.028Z,93.96
2023-10-07T02:23:42.158Z,94.32
2023-10-07T02:26:20.015Z,94.10
2023-10-07T02:28:52.994Z,94.34
2023-10-07T02:31:28.357Z,93.85
2023-10-07T02:33:59.180Z,93.72
2023-10-07T02:36:29.996Z,93.07
2023-10-07T02:39:05.780Z,93.04
2023-10-07T02:41:35.571Z,92.34
2023-10-07T02:44:07.366Z,92.84
2023-10-07T02:46:35.159Z,92.98
2023-10-07T02:49:11.874Z,93.24
2023-10-07T02:51:57.055Z,92.96
2023-10-07T02:54:24.676Z,93.13
2023-10-07T02:56:57.590Z,93.10
2023-10-07T02:59:32.348Z,93.22
2023-10-07T03:02:14.295Z,93.11
2023-10-07T03:04:45.744Z,93.63
2023-10-07T03:07:16.220Z,94.51
2023-10-07T03:09:55.884Z,93.98
2023-10-07T03:12:29.315Z,94.34
2023-10-07T03:15:02.436Z,95.50
2023-10-07T03:17:41.005Z,95.33
2023-10-07T03:20:34.751Z,95.09
2023-10-07T03:23:19.396Z,94.78
2023-10-07T03:26:09.866Z,94.68
2023-10-07T03:28:38.021Z,95.17
2023-10-07T03:31:12.449Z,96.08
2023-10-07T03:33:51.413Z,96.67
2023-10-07T03:36:23.241Z,96.09
2023-10-07T03:39:09.350Z,96.19
2023-10-07T03:41:37.101Z,96.31
2023-10-07T03:44:05.030Z,95.62
2023-10-07T03:46:32.446Z,95.03
2023-10-07T03:48:59.446Z,95.23
2023-10-07T03:51:32.049Z,95.78
2023-10-07T03:54:18.277Z,95.66
2023-10-07T03:56:45.362Z,95.26
2023-10-07T03:59:16.502Z,94.62
2023-10-07T04:01:46.665Z,94.83
2023-10-07T04:04:14.751Z,95.76
2023-10-07T04:06:42.409Z,95.65
2023-10-07T04:09:13.345Z,95.57
2023-10-07T04:11:49.489Z,95.29
2023-10-07T04:14:21.206Z,95.23
2023-10-07T04:16:52.340Z,95.12
2023-10-07T04:19:20.564Z,94.97
2023-10-07T04:21:47.693Z,95.23
2023-10-07T04:24:14.991Z,95.62
2023-10-07T04:26:58.447Z,95.82
2023-10-07T04:29:26.045Z,95.92
2023-10-07T04:31:54.669Z,96.49
2023-10-07T04:34:23.414Z,95.88
2023-10-07T04:37:04.041Z,95.69
2023-10-07T04:39:40.180Z,96.48
2023-10-07T04:42:08.768Z,96.47
2023-10-07T04:44:56.059Z,96.62
2023-10-07T04:47:32.040Z,96.48
2023-10-07T04:50:05.872Z,96.60
2023-10-07T04:52:35.119Z,96.67
2023-10-07T04:55:03.086Z,96.69
2023-10-07T04:57:57.983Z,96.37
2023-10-07T05:00:31.075Z,95.98
2023-10-07T05:03:09.765Z,96.67
2023-10-07T05:05:36.937Z,96.99
2023-10-07T05:08:20.849Z,97.06
2023-10-07T05:10:54.253Z,96.66
2023-10-07T05:13:22.824Z,96.59
2023-10-07T05:15:50.063Z,96.59
2023-10-07T05:18:18.817Z,97.23
2023-10-07T05:20:49.556Z,97.14
2023-10-07T05:23:16.774Z,97.34
2023-10-07T05:25:50.732Z,97.26
2023-10-07T05:28:25.150Z,97.05
2023-10-07T05:30:53.316Z,96.50
2023-10-07T05:33:33.450Z,95.92
2023-10-07T05:36:10.349Z,96.43
2023-10-07T05:38:37.985Z,97.29
2023-10-07T05:41:07.676Z,97.22
2023-10-07T05:43:35.873Z,96.89
2023-10-07T05:46:02.926Z,96.97
2023-10-07T05:48:29.886Z,97.23
2023-10-07T05:50:56.990Z,97.00
2023-10-07T05:53:23.940Z,96.44
2023-10-07T05:55:51.729Z,96.10
2023-10-07T05:58:18.671Z,96.16
2023-10-07T06:00:46.954Z,96.35
2023-10-07T06:03:14.669Z,96.19
2023-10-07T06:05:41.673Z,95.95
2023-10-07T06:08:12.190Z,96.51
2023-10-07T06:10:40.018Z,97.25
2023-10-07T06:13:10.015Z,97.17
2023-10-07T06:15:38.591Z,97.06
2023-10-07T06:18:06.565Z,97.45
2023-10-07T06:20:40.131Z,98.17
2023-10-07T06:23:17.866Z,97.94
2023-10-07T06:25:53.148Z,98.60
2023-10-07T06:28:31.813Z,98.71
2023-10-07T06:31:26.574Z,98.77
2023-10-07T06:34:05.073Z,99.28
2023-10-07T06:36:33.572Z,99.06
2023-10-07T06:39:03.049Z,99.92
2023-10-07T06:41:31.482Z,100.00
2023-10-07T06:44:01.346Z,99.81
2023-10-07T06:46:39.684Z,99.59
2023-10-07T06:49:07.781Z,99.93
2023-10-07T06:51:37.951Z,99.71
2023-10-07T06:54:05.711Z,99.70
2023-10-07T06:56:35.355Z,99.77
2023-10-07T06:59:02.476Z,99.84
2023-10-07T07:01:41.001Z,99.88
2023-10-07T07:04:13.224Z,100.00
2023-10-07T07:06:46.239Z,100.00
2023-10-07T07:09:33.544Z,100.00
2023-10-07T07:12:10.671Z,100.00
2023-10-07T07:14:38.973Z,100.00
2023-10-07T07:17:25.518Z,100.00
2023-10-07T07:20:12.068Z,100.00
2023-10-07T07:22:47.197Z,100.00
2023-10-07T07:25:31.708Z,100.00
2023-10-07T07:28:01.783Z,100.00
2023-10-07T07:30:32.538Z,100.00
2023-10-07T07:33:13.635Z,100.00
2023-10-07T07:35:46.441Z,100.00
2023-10-07T07:38:34.022Z,100.00
2023-10-07T07:41:25.078Z,100.00
2023-10-07T07:43:53.368Z,100.00
2023-10-07T07:46:55.912Z,100.00
2023-10-07T07:49:29.513Z,100.00
2023-10-07T07:51:56.976Z,100.00
2023-10-07T07:54:26.344Z,100.00
2023-10-07T07:56:56.236Z,100.00
2023-10-07T07:59:23.887Z,100.00
2023-10-07T08:01:55.517Z,100.00
2023-10-07T08:04:44.368Z,100.00
2023-10-07T08:07:31.214Z,100.00
2023-10-07T08:09:59.968Z,100.00
2023-10-07T08:12:37.655Z,100.00
2023-10-07T08:15:15.771Z,100.00
2023-10-07T08:17:47.258Z,100.00
2023-10-07T08:20:14.769Z,98.89
2023-10-07T08:22:47.975Z,97.59
2023-10-07T08:25:27.763Z,96.64
2023-10-07T08:27:56.705Z,96.10
2023-10-07T08:30:39.087Z,95.09
2023-10-07T08:33:13.899Z,95.37
2023-10-07T08:35:44.644Z,93.46
2023-10-07T08:38:22.949Z,93.43
2023-10-07T08:41:06.376Z,94.02
2023-10-07T08:43:39.543Z,94.29
2023-10-07T08:46:10.824Z,94.00
2023-10-07T08:48:40.314Z,94.06
2023-10-07T08:51:18.944Z,91.70
2023-10-07T08:53:49.224Z,90.85
2023-10-07T08:56:18.610Z,87.38
2023-10-07T08:58:49.460Z,80.84
2023-10-07T09:01:20.872Z,78.65
2023-10-07T09:03:49.403Z,78.05
2023-10-07T09:06:16.461Z,78.77
2023-10-07T09:08:45.159Z,82.75
2023-10-07T09:11:14.449Z,83.35
2023-10-07T09:13:41.958Z,78.55
2023-10-07T09:16:09.784Z,75.78
2023-10-07T09:18:41.399Z,72.53
2023-10-07T09:21:20.682Z,69.99
2023-10-07T09:24:00.338Z,68.80
2023-10-07T09:26:38.982Z,68.07
2023-10-07T09:29:25.732Z,66.46
2023-10-07T09:31:58.036Z,64.85
2023-10-07T09:34:46.531Z,63.52
2023-10-07T09:37:14.802Z,62.00
2023-10-07T09:40:11.438Z,61.46
2023-10-07T09:42:39.252Z,60.87
2023-10-07T09:45:19.377Z,59.52
2023-10-07T09:47:47.007Z,58.83
2023-10-07T09:50:29.166Z,57.63
2023-10-07T09:53:18.843Z,58.32
2023-10-07T09:56:13.305Z,57.86
2023-10-07T09:59:04.488Z,56.70
2023-10-07T10:01:42.761Z,56.03
2023-10-07T10:04:37.865Z,55.41
2023-10-07T10:07:41.004Z,56.26
2023-10-07T10:10:15.980Z,57.51
2023-10-07T10:13:03.199Z,56.02
2023-10-07T10:15:39.753Z,55.51
2023-10-07T10:18:28.791Z,55.64
2023-10-07T10:21:06.132Z,55.43
2023-10-07T10:23:34.488Z,55.33
2023-10-07T10:26:15.643Z,54.59
2023-10-07T10:28:44.961Z,55.04
2023-10-07T10:31:27.148Z,53.86
2023-10-07T10:33:54.400Z,53.70
2023-10-07T10:36:24.302Z,53.29
2023-10-07T10:38:51.480Z,52.88
2023-10-07T10:41:33.495Z,52.00
2023-10-07T10:44:07.917Z,52.17
2023-10-07T10:46:45.840Z,53.12
2023-10-07T10:49:18.119Z,51.79
2023-10-07T10:51:51.889Z,52.78
2023-10-07T10:54:23.174Z,50.58
2023-10-07T10:56:59.644Z,50.97
2023-10-07T10:59:44.563Z,51.86
2023-10-07T11:02:13.231Z,51.83
2023-10-07T11:04:40.463Z,52.77
2023-10-07T11:07:08.877Z,52.08
2023-10-07T11:09:38.740Z,52.52
2023-10-07T11:12:10.807Z,53.22
2023-10-07T11:14:39.875Z,52.63
2023-10-07T11:17:10.474Z,52.75
2023-10-07T11:19:46.235Z,52.95
2023-10-07T11:22:15.322Z,52.67
2023-10-07T11:24:42.369Z,52.08
2023-10-07T11:27:10.286Z,50.37
2023-10-07T11:29:37.705Z,50.52
2023-10-07T11:32:08.594Z,50.42
2023-10-07T11:34:44.943Z,49.09
2023-10-07T11:37:15.379Z,49.63
2023-10-07T11:39:46.435Z,48.53
2023-10-07T11:42:15.811Z,48.63
2023-10-07T11:44:44.118Z,49.31
2023-10-07T11:47:12.491Z,49.67
2023-10-07T11:49:39.513Z,49.86
2023-10-07T11:52:07.126Z,49.14
2023-10-07T11:54:38.702Z,47.59
2023-10-07T11:57:06.656Z,47.11
2023-10-07T11:59:42.525Z,46.46
2023-10-07T12:02:16.624Z,45.01
2023-10-07T12:04:49.261Z,43.92
2023-10-07T12:07:18.134Z,41.75
2023-10-07T12:09:48.884Z,40.62
2023-10-07T12:12:16.795Z,38.84
2023-10-07T12:14:44.337Z,37.17
2023-10-07T12:17:12.930Z,35.98
2023-10-07T12:19:40.652Z,35.06
2023-10-07T12:22:08.282Z,34.40
2023-10-07T12:24:35.980Z,33.12
2023-10-07T12:27:03.394Z,26.63
2023-10-07T12:29:30.544Z,26.64
2023-10-07T12:31:58.569Z,22.66
2023-10-07T12:34:25.556Z,24.00
2023-10-07T12:36:55.420Z,22.02
2023-10-07T12:39:22.968Z,21.48
2023-10-07T12:41:50.543Z,23.51
2023-10-07T12:44:18.292Z,23.81
2023-10-07T12:46:45.312Z,22.14
2023-10-07T12:49:15.468Z,20.80
2023-10-07T12:51:45.307Z,20.98
2023-10-07T12:54:13.054Z,20.99
2023-10-07T12:56:44.510Z,21.05
2023-10-07T12:59:23.003Z,22.96
2023-10-07T13:01:57.712Z,22.17
2023-10-07T13:04:35.987Z,22.50
2023-10-07T13:07:05.323Z,22.46
2023-10-07T13:09:32.431Z,24.90
2023-10-07T13:12:01.125Z,22.94
2023-10-07T13:14:28.733Z,24.68
2023-10-07T13:16:59.881Z,24.84
2023-10-07T13:19:37.261Z,24.14
2023-10-07T13:22:06.704Z,23.05
2023-10-07T13:24:34.130Z,24.55
2023-10-07T13:27:03.439Z,24.64
2023-10-07T13:29:30.519Z,24.82
2023-10-07T13:31:57.534Z,23.30
2023-10-07T13:34:26.005Z,21.67
2023-10-07T13:36:53.006Z,21.70
2023-10-07T13:39:20.022Z,21.74
2023-10-07T13:41:48.783Z,21.71
2023-10-07T13:44:17.944Z,21.45
2023-10-07T13:46:46.783Z,23.47
2023-10-07T13:49:17.532Z,22.00
2023-10-07T13:51:46.681Z,22.77
2023-10-07T13:54:24.408Z,23.26
2023-10-07T13:57:03.972Z,24.62
2023-10-07T13:59:31.103Z,24.09
2023-10-07T14:02:00.295Z,24.54
2023-10-07T14:04:27.586Z,23.15
2023-10-07T14:07:02.344Z,24.23
2023-10-07T14:09:31.153Z,23.34
2023-10-07T14:11:58.556Z,24.22
2023-10-07T14:14:29.137Z,24.17
2023-10-07T14:17:02.192Z,25.03
2023-10-07T14:19:30.315Z,25.07
2023-10-07T14:21:59.071Z,24.94
2023-10-07T14:24:30.902Z,24.96
2023-10-07T14:26:58.286Z,24.34
2023-10-07T14:29:27.951Z,24.87
2023-10-07T14:31:55.668Z,23.74
2023-10-07T14:34:22.996Z,23.11
2023-10-07T14:36:49.998Z,24.13
2023-10-07T14:39:19.431Z,29.01
2023-10-07T14:42:02.653Z,30.09
2023-10-07T14:44:29.693Z,31.44
2023-10-07T14:46:56.792Z,32.92
2023-10-07T14:49:24.911Z,33.41
2023-10-07T14:51:54.004Z,34.86
2023-10-07T14:54:21.038Z,36.11
2023-10-07T14:56:47.969Z,37.60
2023-10-07T14:59:16.697Z,38.25
2023-10-07T15:01:44.575Z,38.85
2023-10-07T15:04:16.510Z,39.74
2023-10-07T15:06:44.478Z,40.00
2023-10-07T15:09:13.168Z,40.54
2023-10-07T15:11:40.264Z,40.43
2023-10-07T15:14:07.356Z,41.51
2023-10-07T15:16:35.621Z,42.27
2023-10-07T15:19:04.364Z,42.51
2023-10-07T15:21:31.314Z,43.13
2023-10-07T15:23:58.297Z,43.80
2023-10-07T15:26:26.319Z,43.94
2023-10-07T15:28:54.536Z,43.99
2023-10-07T15:31:23.825Z,44.09
2023-10-07T15:34:05.729Z,45.18
2023-10-07T15:36:33.356Z,45.14
2023-10-07T15:39:00.340Z,45.04
2023-10-07T15:41:27.374Z,45.98
2023-10-07T15:43:54.439Z,46.42
2023-10-07T15:46:21.624Z,46.97
2023-10-07T15:48:48.942Z,47.13
2023-10-07T15:51:16.745Z,47.29
2023-10-07T15:53:44.737Z,48.31
2023-10-07T15:56:14.440Z,48.72
2023-10-07T15:58:46.074Z,48.06
2023-10-07T16:01:14.324Z,48.49
2023-10-07T16:03:43.650Z,49.21
2023-10-07T16:06:13.711Z,49.58
2023-10-07T16:08:40.916Z,50.10
2023-10-07T16:11:09.936Z,51.20
2023-10-07T16:13:37.259Z,51.64
2023-10-07T16:16:08.857Z,51.57
2023-10-07T16:18:41.526Z,52.38
2023-10-07T16:21:21.570Z,53.57
2023-10-07T16:23:48.856Z,54.71
2023-10-07T16:26:16.167Z,55.10
2023-10-07T16:28:49.868Z,55.87
2023-10-07T16:31:18.949Z,56.97
2023-10-07T16:33:45.941Z,57.72
2023-10-07T16:36:14.018Z,57.70
2023-10-07T16:38:44.356Z,57.81
2023-10-07T16:41:18.340Z,58.74
2023-10-07T16:43:47.109Z,59.82
2023-10-07T16:46:15.661Z,60.08
2023-10-07T16:48:44.240Z,59.25
2023-10-07T16:51:13.145Z,59.30
2023-10-07T16:53:42.935Z,60.51
2023-10-07T16:56:15.523Z,61.23
2023-10-07T16:58:44.430Z,61.32
2023-10-07T17:01:14.008Z,62.61
2023-10-07T17:03:41.249Z,62.49
2023-10-07T17:06:10.159Z,62.25
2023-10-07T17:08:38.379Z,63.17
2023-10-07T17:11:05.823Z,63.86
2023-10-07T17:13:33.029Z,63.82
2023-10-07T17:16:00.836Z,64.23
2023-10-07T17:18:28.792Z,65.56
2023-10-07T17:21:00.294Z,66.44
2023-10-07T17:23:28.523Z,66.18
2023-10-07T17:25:56.344Z,66.18
2023-10-07T17:28:24.024Z,67.33
2023-10-07T17:30:51.495Z,66.81
2023-10-07T17:33:22.380Z,66.69
2023-10-07T17:35:49.861Z,66.29
2023-10-07T17:38:17.237Z,66.69
2023-10-07T17:40:44.323Z,67.31
2023-10-07T17:43:11.792Z,67.94
2023-10-07T17:45:40.873Z,68.30
2023-10-07T17:48:08.297Z,68.01
2023-10-07T17:50:36.596Z,68.65
2023-10-07T17:53:07.242Z,69.17
2023-10-07T17:55:35.126Z,69.21
2023-10-07T17:58:02.062Z,69.49
2023-10-07T18:00:30.803Z,69.42
2023-10-07T18:02:59.714Z,71.70
2023-10-07T18:05:28.141Z,72.03
2023-10-07T18:07:55.691Z,72.28
2023-10-07T18:10:26.546Z,72.81
2023-10-07T18:12:54.353Z,72.42
2023-10-07T18:15:21.587Z,72.27
2023-10-07T18:17:49.967Z,72.57
2023-10-07T18:20:17.545Z,72.79
2023-10-07T18:22:53.070Z,73.43
2023-10-07T18:25:22.433Z,73.20
2023-10-07T18:27:49.799Z,73.17
2023-10-07T18:30:16.884Z,73.39
2023-10-07T18:32:44.172Z,72.87
2023-10-07T18:35:11.769Z,73.50
2023-10-07T18:37:38.972Z,73.36
2023-10-07T18:40:08.560Z,73.75
2023-10-07T18:42:36.599Z,74.20
2023-10-07T18:45:05.908Z,73.98
2023-10-07T18:47:33.739Z,75.27
2023-10-07T18:50:01.259Z,75.54
2023-10-07T18:52:29.765Z,76.18
2023-10-07T18:54:57.126Z,75.91
2023-10-07T18:57:24.277Z,76.12
2023-10-07T18:59:51.375Z,75.80
2023-10-07T19:02:20.760Z,75.99
2023-10-07T19:04:48.818Z,76.12
2023-10-07T19:07:16.576Z,75.88
2023-10-07T19:09:43.928Z,76.05
2023-10-07T19:12:13.631Z,77.12
2023-10-07T19:14:40.830Z,76.75
2023-10-07T19:17:07.826Z,76.80
2023-10-07T19:19:35.355Z,76.13
2023-10-07T19:22:02.906Z,75.85
2023-10-07T19:24:32.479Z,75.49
2023-10-07T19:27:02.512Z,75.59
2023-10-07T19:29:29.641Z,75.68
2023-10-07T19:31:56.628Z,75.97
2023-10-07T19:34:24.119Z,76.35
2023-10-07T19:36:51.128Z,76.63
2023-10-07T19:39:35.804Z,76.55
2023-10-07T19:42:05.579Z,76.29
2023-10-07T19:44:32.778Z,76.44
2023-10-07T19:46:59.885Z,76.63
2023-10-07T19:49:26.949Z,77.07
2023-10-07T19:51:53.929Z,77.44
2023-10-07T19:54:23.357Z,77.04
2023-10-07T19:56:50.475Z,76.84
2023-10-07T19:59:17.580Z,76.31
2023-10-07T20:01:44.616Z,76.03
2023-10-07T20:04:11.783Z,76.27
2023-10-07T20:06:39.598Z,76.96
2023-10-07T20:09:06.557Z,76.19
2023-10-07T20:11:33.837Z,77.10
2023-10-07T20:14:02.176Z,77.39
2023-10-07T20:16:29.613Z,76.98
2023-10-07T20:18:58.649Z,76.97
2023-10-07T20:21:25.759Z,77.27
2023-10-07T20:23:52.997Z,77.26
2023-10-07T20:26:21.926Z,76.83
2023-10-07T20:28:49.055Z,77.30
2023-10-07T20:31:17.779Z,77.52
2023-10-07T20:33:45.212Z,77.29
2023-10-07T20:36:13.968Z,77.75
2023-10-07T20:38:42.075Z,78.45
2023-10-07T20:41:10.349Z,78.45
2023-10-07T20:43:37.601Z,78.66
2023-10-07T20:46:05.733Z,78.31
2023-10-07T20:48:34.019Z,79.02
2023-10-07T20:51:17.973Z,78.43
2023-10-07T20:53:47.817Z,78.44
2023-10-07T20:56:22.037Z,78.26
2023-10-07T20:58:49.183Z,79.49
2023-10-07T21:01:21.954Z,79.76
2023-10-07T21:03:52.071Z,80.16
2023-10-07T21:06:21.503Z,80.22
2023-10-07T21:08:51.155Z,79.58
2023-10-07T21:11:24.149Z,79.15
2023-10-07T21:13:52.464Z,80.46
2023-10-07T21:16:19.949Z,80.71
2023-10-07T21:18:46.979Z,81.04
2023-10-07T21:21:14.956Z,81.00
2023-10-07T21:23:44.284Z,81.01
2023-10-07T21:26:23.654Z,81.23
2023-10-07T21:28:55.967Z,80.97
2023-10-07T21:31:27.088Z,80.93
2023-10-07T21:33:54.248Z,80.83
2023-10-07T21:36:21.362Z,81.84
2023-10-07T21:38:48.388Z,81.81
2023-10-07T21:41:15.854Z,80.72
2023-10-07T21:43:43.775Z,80.61
2023-10-07T21:46:13.552Z,80.54
2023-10-07T21:48:40.765Z,81.37
2023-10-07T21:51:10.106Z,81.80
2023-10-07T21:53:37.625Z,82.64
2023-10-07T21:56:06.914Z,82.24
2023-10-07T21:58:33.953Z,82.13
2023-10-07T22:01:09.728Z,82.45
2023-10-07T22:03:41.156Z,83.92
2023-10-07T22:06:08.336Z,84.47
2023-10-07T22:08:36.228Z,84.81
2023-10-07T22:11:03.313Z,84.02
2023-10-07T22:13:30.438Z,83.13
2023-10-07T22:15:58.778Z,83.54
2023-10-07T22:18:28.287Z,83.81
2023-10-07T22:20:56.752Z,83.92
2023-10-07T22:23:24.952Z,83.27
2023-10-07T22:25:53.749Z,83.90
2023-10-07T22:28:22.782Z,84.17
2023-10-07T22:30:52.359Z,84.48
2023-10-07T22:33:22.400Z,83.88
2023-10-07T22:35:50.756Z,84.48
2023-10-07T22:38:19.485Z,83.97
2023-10-07T22:40:51.811Z,84.42
2023-10-07T22:43:19.617Z,84.32
2023-10-07T22:45:52.602Z,84.65
2023-10-07T22:48:21.581Z,84.63
2023-10-07T22:51:10.833Z,84.48
2023-10-07T22:53:51.251Z,84.48
2023-10-07T22:56:21.229Z,83.77
2023-10-07T22:58:50.100Z,84.33
2023-10-07T23:01:41.012Z,84.44
2023-10-07T23:04:15.484Z,84.20
2023-10-07T23:07:04.310Z,84.86
2023-10-07T23:09:48.300Z,85.45
2023-10-07T23:12:17.795Z,84.83
2023-10-07T23:14:48.094Z,85.03
2023-10-07T23:17:27.923Z,85.29
2023-10-07T23:20:08.619Z,85.37
2023-10-07T23:22:40.827Z,86.23
2023-10-07T23:25:22.992Z,86.89
2023-10-07T23:27:52.821Z,86.26
2023-10-07T23:30:29.936Z,85.86
2023-10-07T23:33:03.260Z,86.44
2023-10-07T23:35:42.429Z,85.64
2023-10-07T23:38:10.963Z,85.48
2023-10-07T23:40:38.861Z,86.34
2023-10-07T23:43:11.513Z,86.63
2023-10-07T23:45:41.348Z,86.07
2023-10-07T23:48:20.345Z,86.24
2023-10-07T23:50:56.256Z,86.99
2023-10-07T23:53:23.695Z,87.79
2023-10-07T23:56:05.599Z,89.14
2023-10-07T23:58:35.449Z,89.13
